METAR Data
IDs: Format: Raw Decoded Include TAF

Data at: 1354 UTC 26 Feb 2021

EDAC 261320Z 31004KT 9999 -RA BKN010 06/04 Q1030